Hot Springs, AR

5:46 AM CDT on June 02, 2015 (GMT -0500)
Hot Springs Memorial | | Change Station
CLOSE
Current Station
Airport
Location: Hot Springs,
Elevation: 541 ft
Nearby Weather Stations

Elev 541 ft 34.48 °N, 93.10 °W | Updated 53 minutes ago

Scattered Clouds
Scattered Clouds
64 °F
Feels Like 64 °F
N
5
Wind Variable Wind from East

Today
High -- | Low -- °F
--% Chance of Precip.
Yesterday
High -- | Low -- °F
Precip. -- in
6:00 AM 8:20 PM
Full, 100% visible
Pressure 30.06 in
Visibility 10.0 miles
Clouds Few 4000 ft
Few 4900 ft
Scattered Clouds 6500 ft
Dew Point 61 °F
Humidity 90%
Rainfall 0.00 in
Snow Depth Not available.
UV 0 out of 12
Pollen 7.00 out of 12
Air Quality Not available.
Flu Activity No Activity
METAR KHOT 020953Z AUTO 09004KT 10SM FEW040 FEW049 SCT065 18/16 A3007 RMK AO2 SLP179 T01780161

More Conditions Fewer Conditions

Pressure 30.06 in
Visibility 10.0 miles
Clouds Few 4000 ft
Few 4900 ft
Scattered Clouds 6500 ft
Dew Point 61 °F
Humidity 90%
Rainfall 0.00 in
Snow Depth Not available.
UV 0 out of 12
Pollen 7.00 out of 12
Air Quality Not available.
Flu Activity No Activity
METAR KHOT 020953Z AUTO 09004KT 10SM FEW040 FEW049 SCT065 18/16 A3007 RMK AO2 SLP179 T01780161

More Conditions Fewer Conditions

10-Day Weather Forecast

Almanac

Astronomy

Jun. 02, 2015 Rise Set
Actual Time
Civil Twilight
Nautical Twilight
Astronomical Twilight
Moon
Length of Visible Light
Length of Day
Tomorrow will be .
, % of the Moon is Illuminated

Today's Extremes

State Highs State Lows

Community

WunderPhotos

Upload Photos

1,825,902 photos uploaded!

WunderBlogs® & News

Nearby

Air Quality

  Air Quality AQ Index Pollutant
Not available.

Snow Depth

Station Depth Elevation

Earthquake Activity

City Distance Mag. Time & Date
Minimum magnitude displayed is 2.5.

Coastal Water Temperatures

Place Temperature

Stations

Nearby Weather Stations

Station Location Temp. Windchill Dew Point Humidity Wind Precip. Elev Updated Type